Fayetteville Regional Grannis Field Fayetteville US
ICAO: KFAY
IATA: FAY
Category: Medium
Scheduled Services: Yes

Elevation: 189 ft
TransAlt. 18000 ft.

Airport Communications:
APP/DEP:125.175
ATIS:121.25
GND:121.7
RALEIGH RDO:25.54
TWR:118.3
UNICOM:122.95

KFAY Zoom In..

Runways:

(A) RW 04 length 7709 ft width 150 ft
ILS 110.50 / hdg 38

(B) RW 10 length 4801 ft width 150 ft
---- / hdg 98

(C) RW 22 length 7709 ft width 150 ft
---- / hdg 218

(D) RW 28 length 4801 ft width 150 ft
---- / hdg 278

Location; KFAY
Day. 19 / Time. 20.53 Zulu
* Altimeter: 29.99
* Temperature: 32° c. 89.6°f.
* Wind from: 020° Speed 08 kn.
Dewpoint: 13° c.
Visibility: 10 Statute Miles.
Clouds: Few 7000 ft.

KFAY 192053Z 02008KT 10SM FEW070 32/13 A2999 RMK AO2 SLP150 T03220133 56014


Wind From 020°
Speed 08 kn.

 
 
jpsmedia.com for Web Design worldairports.se 2018   terms of use